Hamburg, Louisiana
Current Conditions -  °F | °C
As of 4:55 PM on Saturday 20 Dec 2014 (Local Time) from KOPL Reporting Station
Clear Clear  
Wind Chill: 52°   Ceiling: Unl
Heat Index: 52°   Visibility: 10mi
Dew Point: 46°   Wind: 5mph
Humidity: 81%   Direction: 30°NNE
Pressure: 30.14"   Gusts: NA
Location:  31.03°N, 91.93°W
Report Text: KOPL 202255Z AUTO 03004KT 10SM CLR 11/08 A3014 RMK AO2 T01090077
Loading
Personal Weather Stations






























Interactive Weather Map New forecast layout! Learn more

10-Day Weather Forecast

Advertisements
Track Severe Weather on mobile